sensor_id;sensor_type;location;lat;lon;timestamp;P1;durP1;ratioP1;P2;durP2;ratioP2
77191;SDS011;66172;48.526;8.078;2023-04-04T00:01:36;5.93;;;1.42;;
77191;SDS011;66172;48.526;8.078;2023-04-04T00:04:02;7.93;;;1.15;;
77191;SDS011;66172;48.526;8.078;2023-04-04T00:06:28;5.10;;;1.27;;
77191;SDS011;66172;48.526;8.078;2023-04-04T00:08:54;5.82;;;1.40;;
77191;SDS011;66172;48.526;8.078;2023-04-04T00:11:20;5.20;;;1.42;;
77191;SDS011;66172;48.526;8.078;2023-04-04T00:13:46;5.22;;;1.20;;
77191;SDS011;66172;48.526;8.078;2023-04-04T00:16:12;5.00;;;1.00;;
77191;SDS011;66172;48.526;8.078;2023-04-04T00:18:38;5.00;;;1.35;;
77191;SDS011;66172;48.526;8.078;2023-04-04T00:21:04;5.00;;;1.33;;
77191;SDS011;66172;48.526;8.078;2023-04-04T00:23:30;5.43;;;1.30;;
77191;SDS011;66172;48.526;8.078;2023-04-04T00:25:56;5.17;;;1.27;;
77191;SDS011;66172;48.526;8.078;2023-04-04T00:28:22;5.90;;;1.50;;
77191;SDS011;66172;48.526;8.078;2023-04-04T00:30:48;4.65;;;1.20;;
77191;SDS011;66172;48.526;8.078;2023-04-04T00:33:14;6.23;;;1.40;;
77191;SDS011;66172;48.526;8.078;2023-04-04T00:35:40;5.50;;;1.23;;
77191;SDS011;66172;48.526;8.078;2023-04-04T00:38:06;4.60;;;1.00;;
77191;SDS011;66172;48.526;8.078;2023-04-04T00:40:54;4.60;;;1.00;;
77191;SDS011;66172;48.526;8.078;2023-04-04T00:43:18;5.03;;;1.23;;
77191;SDS011;66172;48.526;8.078;2023-04-04T00:45:44;7.73;;;1.27;;
77191;SDS011;66172;48.526;8.078;2023-04-04T00:48:11;7.68;;;1.92;;
77191;SDS011;66172;48.526;8.078;2023-04-04T00:50:37;4.40;;;1.30;;
77191;SDS011;66172;48.526;8.078;2023-04-04T00:53:03;5.90;;;1.73;;
77191;SDS011;66172;48.526;8.078;2023-04-04T00:55:29;6.13;;;1.37;;
77191;SDS011;66172;48.526;8.078;2023-04-04T00:57:55;5.40;;;1.48;;
77191;SDS011;66172;48.526;8.078;2023-04-04T01:00:23;5.50;;;1.38;;
77191;SDS011;66172;48.526;8.078;2023-04-04T01:02:49;5.45;;;1.17;;
77191;SDS011;66172;48.526;8.078;2023-04-04T01:05:15;4.30;;;1.02;;
77191;SDS011;66172;48.526;8.078;2023-04-04T01:07:41;4.70;;;1.23;;
77191;SDS011;66172;48.526;8.078;2023-04-04T01:10:07;5.60;;;1.50;;
77191;SDS011;66172;48.526;8.078;2023-04-04T01:12:33;5.03;;;1.30;;
77191;SDS011;66172;48.526;8.078;2023-04-04T01:15:00;5.70;;;1.50;;
77191;SDS011;66172;48.526;8.078;2023-04-04T01:17:26;5.97;;;1.30;;
77191;SDS011;66172;48.526;8.078;2023-04-04T01:19:55;6.07;;;1.50;;
77191;SDS011;66172;48.526;8.078;2023-04-04T01:22:27;6.60;;;1.38;;
77191;SDS011;66172;48.526;8.078;2023-04-04T01:24:55;4.85;;;1.40;;
77191;SDS011;66172;48.526;8.078;2023-04-04T01:27:22;6.38;;;1.50;;
77191;SDS011;66172;48.526;8.078;2023-04-04T01:29:49;6.05;;;1.23;;
77191;SDS011;66172;48.526;8.078;2023-04-04T01:32:19;4.43;;;1.20;;
77191;SDS011;66172;48.526;8.078;2023-04-04T01:37:43;5.50;;;1.50;;
77191;SDS011;66172;48.526;8.078;2023-04-04T01:40:22;4.50;;;1.20;;
77191;SDS011;66172;48.526;8.078;2023-04-04T01:42:51;4.78;;;1.38;;
77191;SDS011;66172;48.526;8.078;2023-04-04T01:45:18;5.27;;;1.27;;
77191;SDS011;66172;48.526;8.078;2023-04-04T01:47:47;5.13;;;1.40;;
77191;SDS011;66172;48.526;8.078;2023-04-04T01:50:13;5.28;;;1.20;;
77191;SDS011;66172;48.526;8.078;2023-04-04T01:52:39;7.45;;;1.25;;
77191;SDS011;66172;48.526;8.078;2023-04-04T01:55:05;7.80;;;1.53;;
77191;SDS011;66172;48.526;8.078;2023-04-04T01:57:31;5.38;;;1.17;;
77191;SDS011;66172;48.526;8.078;2023-04-04T01:59:57;4.55;;;1.27;;
77191;SDS011;66172;48.526;8.078;2023-04-04T02:02:23;5.47;;;1.20;;
77191;SDS011;66172;48.526;8.078;2023-04-04T02:04:49;5.13;;;1.30;;
77191;SDS011;66172;48.526;8.078;2023-04-04T02:07:14;5.55;;;1.40;;
77191;SDS011;66172;48.526;8.078;2023-04-04T02:09:40;6.13;;;1.50;;
77191;SDS011;66172;48.526;8.078;2023-04-04T02:12:07;6.77;;;1.20;;
77191;SDS011;66172;48.526;8.078;2023-04-04T02:14:33;4.20;;;1.00;;
77191;SDS011;66172;48.526;8.078;2023-04-04T02:16:59;4.97;;;1.05;;
77191;SDS011;66172;48.526;8.078;2023-04-04T02:19:25;5.95;;;1.83;;
77191;SDS011;66172;48.526;8.078;2023-04-04T02:21:51;4.87;;;1.37;;
77191;SDS011;66172;48.526;8.078;2023-04-04T02:24:17;6.05;;;1.33;;
77191;SDS011;66172;48.526;8.078;2023-04-04T02:26:43;6.07;;;1.50;;
77191;SDS011;66172;48.526;8.078;2023-04-04T02:29:09;5.27;;;1.40;;
77191;SDS011;66172;48.526;8.078;2023-04-04T02:31:35;6.93;;;1.73;;
77191;SDS011;66172;48.526;8.078;2023-04-04T02:34:01;9.60;;;1.83;;
77191;SDS011;66172;48.526;8.078;2023-04-04T02:36:26;5.63;;;1.30;;
77191;SDS011;66172;48.526;8.078;2023-04-04T02:38:53;4.33;;;1.17;;
77191;SDS011;66172;48.526;8.078;2023-04-04T02:41:19;5.03;;;1.42;;
77191;SDS011;66172;48.526;8.078;2023-04-04T02:43:45;5.68;;;1.33;;
77191;SDS011;66172;48.526;8.078;2023-04-04T02:46:11;3.97;;;1.10;;
77191;SDS011;66172;48.526;8.078;2023-04-04T02:48:37;6.63;;;1.83;;
77191;SDS011;66172;48.526;8.078;2023-04-04T02:51:03;5.57;;;1.63;;
77191;SDS011;66172;48.526;8.078;2023-04-04T02:53:29;6.63;;;1.90;;
77191;SDS011;66172;48.526;8.078;2023-04-04T02:55:55;3.92;;;1.17;;
77191;SDS011;66172;48.526;8.078;2023-04-04T02:58:21;4.13;;;1.23;;
77191;SDS011;66172;48.526;8.078;2023-04-04T03:00:53;4.78;;;1.60;;
77191;SDS011;66172;48.526;8.078;2023-04-04T03:03:20;6.35;;;1.48;;
77191;SDS011;66172;48.526;8.078;2023-04-04T03:05:46;6.75;;;1.80;;
77191;SDS011;66172;48.526;8.078;2023-04-04T03:08:14;4.67;;;1.40;;
77191;SDS011;66172;48.526;8.078;2023-04-04T03:10:40;6.95;;;1.70;;
77191;SDS011;66172;48.526;8.078;2023-04-04T03:13:06;5.30;;;1.45;;
77191;SDS011;66172;48.526;8.078;2023-04-04T03:15:32;5.78;;;1.70;;
77191;SDS011;66172;48.526;8.078;2023-04-04T03:17:59;5.87;;;1.40;;
77191;SDS011;66172;48.526;8.078;2023-04-04T03:20:25;5.25;;;1.40;;
77191;SDS011;66172;48.526;8.078;2023-04-04T03:22:51;7.50;;;2.10;;
77191;SDS011;66172;48.526;8.078;2023-04-04T03:25:17;6.75;;;1.67;;
77191;SDS011;66172;48.526;8.078;2023-04-04T03:27:43;9.37;;;1.53;;
77191;SDS011;66172;48.526;8.078;2023-04-04T03:30:09;6.80;;;1.98;;
77191;SDS011;66172;48.526;8.078;2023-04-04T03:32:36;5.07;;;1.60;;
77191;SDS011;66172;48.526;8.078;2023-04-04T03:35:04;5.38;;;1.65;;
77191;SDS011;66172;48.526;8.078;2023-04-04T03:37:31;5.57;;;1.58;;
77191;SDS011;66172;48.526;8.078;2023-04-04T03:39:57;5.73;;;1.60;;
77191;SDS011;66172;48.526;8.078;2023-04-04T03:42:23;5.47;;;1.30;;
77191;SDS011;66172;48.526;8.078;2023-04-04T03:44:51;4.82;;;1.52;;
77191;SDS011;66172;48.526;8.078;2023-04-04T03:47:18;5.07;;;1.50;;
77191;SDS011;66172;48.526;8.078;2023-04-04T03:49:45;4.37;;;1.40;;
77191;SDS011;66172;48.526;8.078;2023-04-04T03:52:11;7.78;;;1.88;;
77191;SDS011;66172;48.526;8.078;2023-04-04T03:54:36;5.78;;;1.80;;
77191;SDS011;66172;48.526;8.078;2023-04-04T03:57:04;4.78;;;1.50;;
77191;SDS011;66172;48.526;8.078;2023-04-04T03:59:30;4.95;;;1.60;;
77191;SDS011;66172;48.526;8.078;2023-04-04T04:01:56;4.97;;;1.70;;
77191;SDS011;66172;48.526;8.078;2023-04-04T04:04:22;5.95;;;2.17;;
77191;SDS011;66172;48.526;8.078;2023-04-04T04:06:48;8.05;;;1.95;;
77191;SDS011;66172;48.526;8.078;2023-04-04T04:09:14;7.10;;;1.90;;
77191;SDS011;66172;48.526;8.078;2023-04-04T04:11:40;6.03;;;1.70;;
77191;SDS011;66172;48.526;8.078;2023-04-04T04:14:06;6.75;;;1.98;;
77191;SDS011;66172;48.526;8.078;2023-04-04T04:16:32;8.40;;;3.92;;
77191;SDS011;66172;48.526;8.078;2023-04-04T04:18:58;4.33;;;1.53;;
77191;SDS011;66172;48.526;8.078;2023-04-04T04:21:23;4.00;;;1.10;;
77191;SDS011;66172;48.526;8.078;2023-04-04T04:23:50;7.15;;;1.58;;
77191;SDS011;66172;48.526;8.078;2023-04-04T04:26:16;5.45;;;1.50;;
77191;SDS011;66172;48.526;8.078;2023-04-04T04:28:42;6.00;;;1.53;;
77191;SDS011;66172;48.526;8.078;2023-04-04T04:31:09;8.60;;;1.37;;
77191;SDS011;66172;48.526;8.078;2023-04-04T04:33:35;6.22;;;1.55;;
77191;SDS011;66172;48.526;8.078;2023-04-04T04:36:01;6.88;;;1.33;;
77191;SDS011;66172;48.526;8.078;2023-04-04T04:38:28;7.97;;;2.90;;
77191;SDS011;66172;48.526;8.078;2023-04-04T04:40:54;6.07;;;1.40;;
77191;SDS011;66172;48.526;8.078;2023-04-04T04:43:22;5.85;;;1.40;;
77191;SDS011;66172;48.526;8.078;2023-04-04T04:45:48;7.18;;;1.60;;
77191;SDS011;66172;48.526;8.078;2023-04-04T04:48:15;13.43;;;3.47;;
77191;SDS011;66172;48.526;8.078;2023-04-04T04:50:42;5.60;;;1.83;;
77191;SDS011;66172;48.526;8.078;2023-04-04T04:53:09;8.43;;;3.53;;
77191;SDS011;66172;48.526;8.078;2023-04-04T04:55:35;7.53;;;2.92;;
77191;SDS011;66172;48.526;8.078;2023-04-04T04:58:01;6.00;;;1.80;;
77191;SDS011;66172;48.526;8.078;2023-04-04T05:00:28;6.40;;;1.65;;
77191;SDS011;66172;48.526;8.078;2023-04-04T05:02:54;6.70;;;2.07;;
77191;SDS011;66172;48.526;8.078;2023-04-04T05:05:21;5.35;;;2.05;;
77191;SDS011;66172;48.526;8.078;2023-04-04T05:07:47;6.95;;;2.03;;
77191;SDS011;66172;48.526;8.078;2023-04-04T05:10:13;8.10;;;1.63;;
77191;SDS011;66172;48.526;8.078;2023-04-04T05:12:45;7.47;;;1.50;;
77191;SDS011;66172;48.526;8.078;2023-04-04T05:15:11;6.35;;;1.75;;
77191;SDS011;66172;48.526;8.078;2023-04-04T05:17:37;7.38;;;1.60;;
77191;SDS011;66172;48.526;8.078;2023-04-04T05:20:05;5.57;;;1.60;;
77191;SDS011;66172;48.526;8.078;2023-04-04T05:22:32;6.30;;;2.10;;
77191;SDS011;66172;48.526;8.078;2023-04-04T05:24:58;5.90;;;1.67;;
77191;SDS011;66172;48.526;8.078;2023-04-04T05:27:24;6.57;;;1.60;;
77191;SDS011;66172;48.526;8.078;2023-04-04T05:29:50;5.15;;;1.50;;
77191;SDS011;66172;48.526;8.078;2023-04-04T05:32:16;6.50;;;2.00;;
77191;SDS011;66172;48.526;8.078;2023-04-04T05:34:42;10.13;;;2.30;;
77191;SDS011;66172;48.526;8.078;2023-04-04T05:37:08;7.55;;;2.88;;
77191;SDS011;66172;48.526;8.078;2023-04-04T05:39:33;6.70;;;2.22;;
77191;SDS011;66172;48.526;8.078;2023-04-04T05:41:59;6.90;;;2.87;;
77191;SDS011;66172;48.526;8.078;2023-04-04T05:44:25;11.45;;;1.90;;
77191;SDS011;66172;48.526;8.078;2023-04-04T05:46:51;5.60;;;1.90;;
77191;SDS011;66172;48.526;8.078;2023-04-04T05:49:17;6.22;;;1.90;;
77191;SDS011;66172;48.526;8.078;2023-04-04T05:51:43;7.37;;;2.50;;
77191;SDS011;66172;48.526;8.078;2023-04-04T05:54:09;6.55;;;1.95;;
77191;SDS011;66172;48.526;8.078;2023-04-04T05:56:35;5.85;;;1.73;;
77191;SDS011;66172;48.526;8.078;2023-04-04T05:59:01;6.83;;;1.73;;
77191;SDS011;66172;48.526;8.078;2023-04-04T06:01:27;6.60;;;2.23;;
77191;SDS011;66172;48.526;8.078;2023-04-04T06:03:53;6.47;;;2.05;;
77191;SDS011;66172;48.526;8.078;2023-04-04T06:06:20;7.95;;;2.70;;
77191;SDS011;66172;48.526;8.078;2023-04-04T06:08:46;8.23;;;2.40;;
77191;SDS011;66172;48.526;8.078;2023-04-04T06:11:12;7.53;;;1.97;;
77191;SDS011;66172;48.526;8.078;2023-04-04T06:13:38;9.05;;;1.92;;
77191;SDS011;66172;48.526;8.078;2023-04-04T06:16:04;6.45;;;1.90;;
77191;SDS011;66172;48.526;8.078;2023-04-04T06:18:30;6.43;;;2.20;;
77191;SDS011;66172;48.526;8.078;2023-04-04T06:20:56;8.07;;;2.03;;
77191;SDS011;66172;48.526;8.078;2023-04-04T06:23:22;5.72;;;2.13;;
77191;SDS011;66172;48.526;8.078;2023-04-04T06:25:48;8.23;;;2.55;;
77191;SDS011;66172;48.526;8.078;2023-04-04T06:28:14;7.37;;;2.33;;
77191;SDS011;66172;48.526;8.078;2023-04-04T06:30:42;7.03;;;2.80;;
77191;SDS011;66172;48.526;8.078;2023-04-04T06:33:09;10.52;;;2.70;;
77191;SDS011;66172;48.526;8.078;2023-04-04T06:35:35;6.78;;;2.70;;
77191;SDS011;66172;48.526;8.078;2023-04-04T06:38:01;7.90;;;3.67;;
77191;SDS011;66172;48.526;8.078;2023-04-04T06:40:28;10.70;;;3.60;;
77191;SDS011;66172;48.526;8.078;2023-04-04T06:42:54;8.90;;;3.80;;
77191;SDS011;66172;48.526;8.078;2023-04-04T06:45:23;8.32;;;4.22;;
77191;SDS011;66172;48.526;8.078;2023-04-04T06:47:49;10.57;;;4.45;;
77191;SDS011;66172;48.526;8.078;2023-04-04T06:50:17;8.50;;;4.00;;
77191;SDS011;66172;48.526;8.078;2023-04-04T06:52:43;10.73;;;4.30;;
77191;SDS011;66172;48.526;8.078;2023-04-04T06:55:09;8.30;;;4.10;;
77191;SDS011;66172;48.526;8.078;2023-04-04T06:57:36;8.00;;;4.07;;
77191;SDS011;66172;48.526;8.078;2023-04-04T07:00:03;9.23;;;3.78;;
77191;SDS011;66172;48.526;8.078;2023-04-04T07:02:29;8.88;;;3.30;;
77191;SDS011;66172;48.526;8.078;2023-04-04T07:04:55;6.17;;;3.33;;
77191;SDS011;66172;48.526;8.078;2023-04-04T07:07:21;7.00;;;3.42;;
77191;SDS011;66172;48.526;8.078;2023-04-04T07:09:47;7.10;;;3.40;;
77191;SDS011;66172;48.526;8.078;2023-04-04T07:12:13;8.65;;;3.97;;
77191;SDS011;66172;48.526;8.078;2023-04-04T07:14:39;10.13;;;4.17;;
77191;SDS011;66172;48.526;8.078;2023-04-04T07:17:05;7.65;;;3.80;;
77191;SDS011;66172;48.526;8.078;2023-04-04T07:19:31;7.70;;;3.90;;
77191;SDS011;66172;48.526;8.078;2023-04-04T07:21:57;6.30;;;3.20;;
77191;SDS011;66172;48.526;8.078;2023-04-04T07:24:23;6.47;;;3.87;;
77191;SDS011;66172;48.526;8.078;2023-04-04T07:26:49;7.78;;;3.60;;
77191;SDS011;66172;48.526;8.078;2023-04-04T07:29:15;6.55;;;3.45;;
77191;SDS011;66172;48.526;8.078;2023-04-04T07:31:41;7.63;;;3.13;;
77191;SDS011;66172;48.526;8.078;2023-04-04T07:34:07;7.83;;;3.43;;
77191;SDS011;66172;48.526;8.078;2023-04-04T07:36:33;7.60;;;3.22;;
77191;SDS011;66172;48.526;8.078;2023-04-04T07:38:59;8.63;;;3.03;;
77191;SDS011;66172;48.526;8.078;2023-04-04T07:41:24;7.07;;;3.10;;
77191;SDS011;66172;48.526;8.078;2023-04-04T07:43:50;5.60;;;2.88;;
77191;SDS011;66172;48.526;8.078;2023-04-04T07:46:16;6.13;;;3.15;;
77191;SDS011;66172;48.526;8.078;2023-04-04T07:48:42;7.10;;;3.55;;
77191;SDS011;66172;48.526;8.078;2023-04-04T07:51:08;6.43;;;3.47;;
77191;SDS011;66172;48.526;8.078;2023-04-04T07:53:34;7.03;;;3.10;;
77191;SDS011;66172;48.526;8.078;2023-04-04T07:56:00;5.55;;;2.70;;
77191;SDS011;66172;48.526;8.078;2023-04-04T07:58:33;7.72;;;2.90;;
77191;SDS011;66172;48.526;8.078;2023-04-04T08:01:00;8.20;;;2.97;;
77191;SDS011;66172;48.526;8.078;2023-04-04T08:03:29;8.77;;;2.73;;
77191;SDS011;66172;48.526;8.078;2023-04-04T08:05:55;7.22;;;2.58;;
77191;SDS011;66172;48.526;8.078;2023-04-04T08:08:20;6.80;;;2.67;;
77191;SDS011;66172;48.526;8.078;2023-04-04T08:10:47;7.30;;;2.40;;
77191;SDS011;66172;48.526;8.078;2023-04-04T08:13:13;7.47;;;2.30;;
77191;SDS011;66172;48.526;8.078;2023-04-04T08:15:39;8.45;;;2.80;;
77191;SDS011;66172;48.526;8.078;2023-04-04T08:18:05;6.30;;;2.80;;
77191;SDS011;66172;48.526;8.078;2023-04-04T08:20:31;6.38;;;2.97;;
77191;SDS011;66172;48.526;8.078;2023-04-04T08:22:57;5.78;;;2.45;;
77191;SDS011;66172;48.526;8.078;2023-04-04T08:25:23;7.17;;;2.83;;
77191;SDS011;66172;48.526;8.078;2023-04-04T08:27:49;6.25;;;2.40;;
77191;SDS011;66172;48.526;8.078;2023-04-04T08:30:15;6.65;;;2.45;;
77191;SDS011;66172;48.526;8.078;2023-04-04T08:32:41;5.82;;;2.30;;
77191;SDS011;66172;48.526;8.078;2023-04-04T08:35:13;5.83;;;1.97;;
77191;SDS011;66172;48.526;8.078;2023-04-04T08:37:42;5.47;;;2.08;;
77191;SDS011;66172;48.526;8.078;2023-04-04T08:40:09;5.40;;;1.80;;
77191;SDS011;66172;48.526;8.078;2023-04-04T08:42:35;5.85;;;1.77;;
77191;SDS011;66172;48.526;8.078;2023-04-04T08:45:04;6.00;;;1.55;;
77191;SDS011;66172;48.526;8.078;2023-04-04T08:47:34;5.80;;;1.80;;
77191;SDS011;66172;48.526;8.078;2023-04-04T08:50:05;4.88;;;1.40;;
77191;SDS011;66172;48.526;8.078;2023-04-04T08:52:32;6.78;;;1.80;;
77191;SDS011;66172;48.526;8.078;2023-04-04T08:54:59;4.60;;;1.38;;
77191;SDS011;66172;48.526;8.078;2023-04-04T08:57:27;5.00;;;1.60;;
77191;SDS011;66172;48.526;8.078;2023-04-04T08:59:53;7.60;;;1.63;;
77191;SDS011;66172;48.526;8.078;2023-04-04T09:02:25;5.35;;;1.40;;
77191;SDS011;66172;48.526;8.078;2023-04-04T09:05:01;4.68;;;1.30;;
77191;SDS011;66172;48.526;8.078;2023-04-04T09:07:28;5.20;;;1.40;;
77191;SDS011;66172;48.526;8.078;2023-04-04T09:09:54;6.40;;;1.73;;
77191;SDS011;66172;48.526;8.078;2023-04-04T09:12:21;4.97;;;1.40;;
77191;SDS011;66172;48.526;8.078;2023-04-04T09:14:49;5.65;;;1.67;;
77191;SDS011;66172;48.526;8.078;2023-04-04T09:17:16;5.50;;;1.33;;
77191;SDS011;66172;48.526;8.078;2023-04-04T09:19:43;4.43;;;1.10;;
77191;SDS011;66172;48.526;8.078;2023-04-04T09:22:09;4.20;;;1.30;;
77191;SDS011;66172;48.526;8.078;2023-04-04T09:24:41;5.20;;;1.30;;
77191;SDS011;66172;48.526;8.078;2023-04-04T09:27:08;4.95;;;1.92;;
77191;SDS011;66172;48.526;8.078;2023-04-04T09:29:39;5.72;;;1.67;;
77191;SDS011;66172;48.526;8.078;2023-04-04T09:32:07;5.95;;;1.55;;
77191;SDS011;66172;48.526;8.078;2023-04-04T09:34:40;5.20;;;1.33;;
77191;SDS011;66172;48.526;8.078;2023-04-04T09:37:06;4.60;;;1.40;;
77191;SDS011;66172;48.526;8.078;2023-04-04T09:39:32;8.23;;;1.77;;
77191;SDS011;66172;48.526;8.078;2023-04-04T09:42:00;6.63;;;1.50;;
77191;SDS011;66172;48.526;8.078;2023-04-04T09:44:27;5.32;;;1.42;;
77191;SDS011;66172;48.526;8.078;2023-04-04T09:50:06;7.03;;;1.70;;
77191;SDS011;66172;48.526;8.078;2023-04-04T09:52:32;3.80;;;1.20;;
77191;SDS011;66172;48.526;8.078;2023-04-04T09:55:02;4.43;;;1.40;;
77191;SDS011;66172;48.526;8.078;2023-04-04T09:57:30;5.70;;;1.67;;
77191;SDS011;66172;48.526;8.078;2023-04-04T10:00:00;5.27;;;1.60;;
77191;SDS011;66172;48.526;8.078;2023-04-04T10:02:29;4.93;;;1.60;;
77191;SDS011;66172;48.526;8.078;2023-04-04T10:04:55;5.03;;;1.70;;
77191;SDS011;66172;48.526;8.078;2023-04-04T10:07:31;5.65;;;1.60;;
77191;SDS011;66172;48.526;8.078;2023-04-04T10:10:01;5.28;;;1.90;;
77191;SDS011;66172;48.526;8.078;2023-04-04T10:12:30;6.07;;;1.90;;
77191;SDS011;66172;48.526;8.078;2023-04-04T10:14:56;6.20;;;1.80;;
77191;SDS011;66172;48.526;8.078;2023-04-04T10:17:23;5.10;;;1.88;;
77191;SDS011;66172;48.526;8.078;2023-04-04T10:19:51;4.90;;;1.75;;
77191;SDS011;66172;48.526;8.078;2023-04-04T10:22:19;6.20;;;2.20;;
77191;SDS011;66172;48.526;8.078;2023-04-04T10:24:45;4.80;;;1.90;;
77191;SDS011;66172;48.526;8.078;2023-04-04T10:27:11;5.75;;;1.98;;
77191;SDS011;66172;48.526;8.078;2023-04-04T10:29:37;5.45;;;2.40;;
77191;SDS011;66172;48.526;8.078;2023-04-04T10:32:06;4.70;;;2.00;;
77191;SDS011;66172;48.526;8.078;2023-04-04T10:34:40;5.10;;;2.07;;
77191;SDS011;66172;48.526;8.078;2023-04-04T10:37:12;4.57;;;1.70;;
77191;SDS011;66172;48.526;8.078;2023-04-04T10:39:45;5.95;;;2.38;;
77191;SDS011;66172;48.526;8.078;2023-04-04T10:42:16;6.13;;;2.00;;
77191;SDS011;66172;48.526;8.078;2023-04-04T10:44:44;4.45;;;1.92;;
77191;SDS011;66172;48.526;8.078;2023-04-04T10:47:16;4.80;;;1.60;;
77191;SDS011;66172;48.526;8.078;2023-04-04T10:49:46;5.00;;;1.50;;
77191;SDS011;66172;48.526;8.078;2023-04-04T10:52:13;5.50;;;2.08;;
77191;SDS011;66172;48.526;8.078;2023-04-04T10:54:41;5.65;;;2.42;;
77191;SDS011;66172;48.526;8.078;2023-04-04T10:57:09;5.55;;;1.95;;
77191;SDS011;66172;48.526;8.078;2023-04-04T11:05:30;5.47;;;1.58;;
77191;SDS011;66172;48.526;8.078;2023-04-04T11:08:04;5.10;;;1.70;;
77191;SDS011;66172;48.526;8.078;2023-04-04T11:13:10;4.90;;;1.80;;
77191;SDS011;66172;48.526;8.078;2023-04-04T11:21:23;4.53;;;1.50;;
77191;SDS011;66172;48.526;8.078;2023-04-04T11:28:55;5.35;;;1.77;;
77191;SDS011;66172;48.526;8.078;2023-04-04T11:31:38;6.53;;;1.70;;
77191;SDS011;66172;48.526;8.078;2023-04-04T11:34:08;4.75;;;1.73;;
77191;SDS011;66172;48.526;8.078;2023-04-04T11:44:24;5.07;;;1.83;;
77191;SDS011;66172;48.526;8.078;2023-04-04T11:46:54;4.90;;;1.77;;
77191;SDS011;66172;48.526;8.078;2023-04-04T11:49:41;5.03;;;1.88;;
77191;SDS011;66172;48.526;8.078;2023-04-04T11:52:11;5.50;;;2.15;;
77191;SDS011;66172;48.526;8.078;2023-04-04T11:54:39;4.47;;;1.75;;
77191;SDS011;66172;48.526;8.078;2023-04-04T11:57:08;5.22;;;1.80;;
77191;SDS011;66172;48.526;8.078;2023-04-04T11:59:39;7.10;;;1.53;;
77191;SDS011;66172;48.526;8.078;2023-04-04T12:02:19;4.97;;;1.80;;
77191;SDS011;66172;48.526;8.078;2023-04-04T12:04:47;5.47;;;1.58;;
77191;SDS011;66172;48.526;8.078;2023-04-04T12:07:16;6.47;;;2.25;;
77191;SDS011;66172;48.526;8.078;2023-04-04T12:09:42;5.25;;;1.80;;
77191;SDS011;66172;48.526;8.078;2023-04-04T12:12:12;5.87;;;1.50;;
77191;SDS011;66172;48.526;8.078;2023-04-04T12:14:41;5.72;;;1.67;;
77191;SDS011;66172;48.526;8.078;2023-04-04T12:17:07;4.93;;;1.80;;
77191;SDS011;66172;48.526;8.078;2023-04-04T12:19:36;4.55;;;1.88;;
77191;SDS011;66172;48.526;8.078;2023-04-04T12:22:03;6.03;;;1.83;;
77191;SDS011;66172;48.526;8.078;2023-04-04T12:24:29;4.23;;;1.63;;
77191;SDS011;66172;48.526;8.078;2023-04-04T12:26:55;5.38;;;1.50;;
77191;SDS011;66172;48.526;8.078;2023-04-04T12:29:23;6.47;;;1.75;;
77191;SDS011;66172;48.526;8.078;2023-04-04T12:31:52;4.13;;;1.20;;
77191;SDS011;66172;48.526;8.078;2023-04-04T12:34:23;4.28;;;1.52;;
77191;SDS011;66172;48.526;8.078;2023-04-04T12:36:55;4.70;;;1.33;;
77191;SDS011;66172;48.526;8.078;2023-04-04T12:39:25;5.15;;;1.42;;
77191;SDS011;66172;48.526;8.078;2023-04-04T12:41:59;5.22;;;1.52;;
77191;SDS011;66172;48.526;8.078;2023-04-04T12:47:01;4.85;;;1.30;;
77191;SDS011;66172;48.526;8.078;2023-04-04T12:52:06;4.20;;;1.33;;
77191;SDS011;66172;48.526;8.078;2023-04-04T12:54:40;4.78;;;1.63;;
77191;SDS011;66172;48.526;8.078;2023-04-04T12:57:07;8.20;;;1.90;;
77191;SDS011;66172;48.526;8.078;2023-04-04T12:59:34;5.93;;;1.60;;
77191;SDS011;66172;48.526;8.078;2023-04-04T13:02:01;5.83;;;2.00;;
77191;SDS011;66172;48.526;8.078;2023-04-04T13:04:31;4.70;;;1.70;;
77191;SDS011;66172;48.526;8.078;2023-04-04T13:06:58;5.10;;;1.58;;
77191;SDS011;66172;48.526;8.078;2023-04-04T13:09:25;6.70;;;2.10;;
77191;SDS011;66172;48.526;8.078;2023-04-04T13:11:54;5.68;;;1.95;;
77191;SDS011;66172;48.526;8.078;2023-04-04T13:14:22;6.43;;;2.17;;
77191;SDS011;66172;48.526;8.078;2023-04-04T13:17:00;6.32;;;1.60;;
77191;SDS011;66172;48.526;8.078;2023-04-04T13:19:30;4.80;;;1.60;;
77191;SDS011;66172;48.526;8.078;2023-04-04T13:21:56;5.93;;;2.25;;
77191;SDS011;66172;48.526;8.078;2023-04-04T13:24:22;6.27;;;1.70;;
77191;SDS011;66172;48.526;8.078;2023-04-04T13:26:48;5.82;;;1.70;;
77191;SDS011;66172;48.526;8.078;2023-04-04T13:29:14;6.55;;;1.70;;
77191;SDS011;66172;48.526;8.078;2023-04-04T13:31:40;5.82;;;1.77;;
77191;SDS011;66172;48.526;8.078;2023-04-04T13:34:06;9.73;;;1.77;;
77191;SDS011;66172;48.526;8.078;2023-04-04T13:36:32;6.85;;;1.70;;
77191;SDS011;66172;48.526;8.078;2023-04-04T13:38:58;4.75;;;1.63;;
77191;SDS011;66172;48.526;8.078;2023-04-04T13:41:23;6.50;;;1.57;;
77191;SDS011;66172;48.526;8.078;2023-04-04T13:43:50;4.38;;;1.58;;
77191;SDS011;66172;48.526;8.078;2023-04-04T13:46:16;8.13;;;3.05;;
77191;SDS011;66172;48.526;8.078;2023-04-04T13:48:42;9.00;;;3.38;;
77191;SDS011;66172;48.526;8.078;2023-04-04T13:51:08;8.53;;;2.17;;
77191;SDS011;66172;48.526;8.078;2023-04-04T13:53:34;9.13;;;2.45;;
77191;SDS011;66172;48.526;8.078;2023-04-04T13:56:00;7.18;;;1.70;;
77191;SDS011;66172;48.526;8.078;2023-04-04T13:58:26;4.77;;;1.67;;
77191;SDS011;66172;48.526;8.078;2023-04-04T14:00:52;5.40;;;1.77;;
77191;SDS011;66172;48.526;8.078;2023-04-04T14:03:18;5.55;;;1.65;;
77191;SDS011;66172;48.526;8.078;2023-04-04T14:05:44;6.35;;;1.63;;
77191;SDS011;66172;48.526;8.078;2023-04-04T14:08:10;6.07;;;1.57;;
77191;SDS011;66172;48.526;8.078;2023-04-04T14:10:36;6.85;;;1.58;;
77191;SDS011;66172;48.526;8.078;2023-04-04T14:13:02;7.40;;;2.30;;
77191;SDS011;66172;48.526;8.078;2023-04-04T14:15:28;5.82;;;1.50;;
77191;SDS011;66172;48.526;8.078;2023-04-04T14:17:54;7.37;;;2.10;;
77191;SDS011;66172;48.526;8.078;2023-04-04T14:20:19;6.75;;;2.05;;
77191;SDS011;66172;48.526;8.078;2023-04-04T14:22:45;5.03;;;1.80;;
77191;SDS011;66172;48.526;8.078;2023-04-04T14:25:11;5.80;;;1.88;;
77191;SDS011;66172;48.526;8.078;2023-04-04T14:27:40;6.87;;;1.63;;
77191;SDS011;66172;48.526;8.078;2023-04-04T14:30:06;6.35;;;1.48;;
77191;SDS011;66172;48.526;8.078;2023-04-04T14:32:32;4.80;;;1.63;;
77191;SDS011;66172;48.526;8.078;2023-04-04T14:34:58;6.20;;;1.90;;
77191;SDS011;66172;48.526;8.078;2023-04-04T14:37:24;7.27;;;2.43;;
77191;SDS011;66172;48.526;8.078;2023-04-04T14:39:50;5.47;;;1.50;;
77191;SDS011;66172;48.526;8.078;2023-04-04T14:42:16;7.35;;;1.88;;
77191;SDS011;66172;48.526;8.078;2023-04-04T14:44:42;5.57;;;1.75;;
77191;SDS011;66172;48.526;8.078;2023-04-04T14:47:08;4.87;;;1.40;;
77191;SDS011;66172;48.526;8.078;2023-04-04T14:49:34;5.40;;;1.85;;
77191;SDS011;66172;48.526;8.078;2023-04-04T14:51:59;9.00;;;2.00;;
77191;SDS011;66172;48.526;8.078;2023-04-04T14:54:26;7.22;;;1.83;;
77191;SDS011;66172;48.526;8.078;2023-04-04T14:56:51;5.20;;;1.80;;
77191;SDS011;66172;48.526;8.078;2023-04-04T14:59:17;5.32;;;1.80;;
77191;SDS011;66172;48.526;8.078;2023-04-04T15:01:43;6.75;;;2.25;;
77191;SDS011;66172;48.526;8.078;2023-04-04T15:04:09;6.60;;;2.07;;
77191;SDS011;66172;48.526;8.078;2023-04-04T15:06:36;5.22;;;1.98;;
77191;SDS011;66172;48.526;8.078;2023-04-04T15:09:02;4.88;;;1.90;;
77191;SDS011;66172;48.526;8.078;2023-04-04T15:11:30;5.63;;;1.77;;
77191;SDS011;66172;48.526;8.078;2023-04-04T15:13:56;5.53;;;1.70;;
77191;SDS011;66172;48.526;8.078;2023-04-04T15:16:22;6.80;;;1.73;;
77191;SDS011;66172;48.526;8.078;2023-04-04T15:18:49;6.63;;;2.20;;
77191;SDS011;66172;48.526;8.078;2023-04-04T15:21:15;9.10;;;2.28;;
77191;SDS011;66172;48.526;8.078;2023-04-04T15:23:41;5.20;;;1.77;;
77191;SDS011;66172;48.526;8.078;2023-04-04T15:26:07;5.70;;;1.70;;